Time;durP1;ratioP1;P1;durP2;ratioP2;P2;SDS_P1;SDS_P2;PMS_P1;PMS_P2;Temp;Humidity;BMP_temperature;BMP_pressure;BME280_temperature;BME280_humidity;BME280_pressure;Samples;Min_cycle;Max_cycle;Signal;HPM_P1;HPM_P2
2022/03/01 00:01:52;;;;;;;3.77;3.47;;;16.30;48.50;17.10;102066.00;;;;5008044;28;20265;-46
2022/03/01 00:04:19;;;;;;;3.77;3.47;;;16.30;48.50;17.10;102061.00;;;;5007490;28;20191;-45
2022/03/01 00:06:45;;;;;;;4.33;3.50;;;16.20;48.60;17.10;102051.00;;;;5006923;28;20543;-45
2022/03/01 00:09:10;;;;;;;5.17;3.80;;;16.20;48.60;17.10;102062.00;;;;5007121;28;20187;-44
2022/03/01 00:11:36;;;;;;;3.77;3.47;;;16.20;48.70;17.10;102054.00;;;;5006197;28;20179;-43
2022/03/01 00:14:02;;;;;;;3.90;3.60;;;16.10;48.60;17.10;102056.00;;;;5007327;28;20195;-45
2022/03/01 00:16:29;;;;;;;3.93;3.50;;;16.10;48.70;17.10;102059.00;;;;5007699;28;20254;-45
2022/03/01 00:18:54;;;;;;;3.93;3.63;;;16.10;48.70;17.00;102069.00;;;;5006884;28;20576;-45
2022/03/01 00:21:21;;;;;;;3.40;3.10;;;16.10;48.70;17.00;102060.00;;;;5006709;28;20190;-44
2022/03/01 00:23:47;;;;;;;4.00;3.70;;;16.10;48.80;17.00;102061.00;;;;5006806;28;20199;-44
2022/03/01 00:26:13;;;;;;;3.93;3.53;;;16.10;48.90;17.00;102064.00;;;;5006701;28;20229;-45
2022/03/01 00:28:38;;;;;;;4.40;3.50;;;16.10;48.90;17.00;102068.00;;;;5007145;28;20251;-45
2022/03/01 00:31:04;;;;;;;3.70;3.23;;;16.00;48.90;17.00;102064.00;;;;5006832;28;20723;-45
2022/03/01 00:33:30;;;;;;;4.30;3.93;;;15.90;48.80;17.00;102071.00;;;;5006889;28;20237;-45
2022/03/01 00:35:56;;;;;;;3.90;3.60;;;15.90;49.00;16.90;102065.00;;;;5007271;28;20199;-45
2022/03/01 00:38:22;;;;;;;4.27;3.57;;;15.90;49.00;16.90;102064.00;;;;5007495;28;20238;-44
2022/03/01 00:40:47;;;;;;;3.73;3.43;;;15.90;49.00;16.90;102064.00;;;;5007224;28;20179;-46
2022/03/01 00:43:13;;;;;;;3.70;3.40;;;15.80;48.90;16.90;102072.00;;;;5007434;28;20192;-44
2022/03/01 00:45:39;;;;;;;4.10;3.70;;;15.80;48.90;16.90;102068.00;;;;5007582;28;20541;-46
2022/03/01 00:48:04;;;;;;;3.77;3.47;;;15.80;48.90;16.90;102064.00;;;;5006928;28;20171;-45
2022/03/01 00:50:30;;;;;;;3.83;3.53;;;15.80;48.90;16.90;102067.00;;;;5021831;28;20179;-45
2022/03/01 00:52:56;;;;;;;4.07;3.77;;;15.80;48.90;16.80;102067.00;;;;5006750;28;20199;-43
2022/03/01 00:55:22;;;;;;;3.93;3.40;;;15.70;48.90;16.80;102060.00;;;;5007348;28;20194;-45
2022/03/01 00:57:47;;;;;;;3.80;3.43;;;15.80;48.90;16.80;102060.00;;;;5007584;28;20212;-44
2022/03/01 01:00:13;;;;;;;3.60;3.30;;;15.80;48.90;16.80;102064.00;;;;5010430;28;20829;-45
2022/03/01 01:02:40;;;;;;;3.67;3.30;;;15.70;48.90;16.80;102056.00;;;;5010723;28;20192;-45
2022/03/01 01:05:06;;;;;;;4.10;3.70;;;15.70;48.90;16.80;102063.00;;;;5009961;28;20699;-45
2022/03/01 01:07:32;;;;;;;4.00;3.60;;;15.70;48.90;16.80;102059.00;;;;5010517;28;20168;-45
2022/03/01 01:09:58;;;;;;;3.87;3.57;;;15.70;48.90;16.80;102068.00;;;;5010020;28;20171;-44
2022/03/01 01:12:24;;;;;;;3.80;3.50;;;15.60;48.80;16.80;102061.00;;;;5010881;28;20206;-46
2022/03/01 01:14:49;;;;;;;3.90;3.60;;;15.60;48.80;16.70;102071.00;;;;5011963;28;20171;-44
2022/03/01 01:17:15;;;;;;;4.17;3.63;;;15.60;48.80;16.70;102066.00;;;;5010377;28;20923;-45
2022/03/01 01:19:41;;;;;;;3.90;3.60;;;15.60;48.80;16.70;102059.00;;;;5009355;28;20307;-46
2022/03/01 01:24:51;;;;;;;3.73;3.43;;;15.60;48.80;16.40;102058.00;;;;5009533;28;20213;-44
2022/03/01 01:27:17;;;;;;;3.87;3.57;;;15.60;49.00;16.70;102057.00;;;;5009472;28;20175;-43
2022/03/01 01:29:42;;;;;;;3.73;3.43;;;15.60;49.00;16.60;102059.00;;;;5024869;28;20180;-45
2022/03/01 01:32:11;;;;;;;3.50;3.20;;;15.50;48.90;16.60;102066.00;;;;5009847;28;20184;-44
2022/03/01 01:34:37;;;;;;;3.70;3.40;;;15.50;49.00;16.60;102066.00;;;;5009968;28;20589;-44
2022/03/01 01:37:02;;;;;;;3.90;3.60;;;15.50;48.80;16.60;102058.00;;;;5009315;28;20198;-45
2022/03/01 01:39:28;;;;;;;3.67;3.37;;;15.50;48.80;16.60;102058.00;;;;5008968;28;20204;-44
2022/03/01 01:41:54;;;;;;;4.13;3.50;;;15.50;48.80;16.60;102061.00;;;;5009337;28;20182;-45
2022/03/01 01:44:20;;;;;;;3.63;3.33;;;15.50;48.90;16.60;102056.00;;;;5015779;28;20211;-45
2022/03/01 01:46:45;;;;;;;3.70;3.40;;;15.50;48.90;16.60;102064.00;;;;5011967;28;20180;-45
2022/03/01 01:49:11;;;;;;;3.47;3.17;;;15.50;48.90;16.50;102064.00;;;;5008947;28;20655;-44
2022/03/01 01:51:37;;;;;;;3.70;3.40;;;15.40;49.10;16.50;102061.00;;;;5008860;28;20648;-44
2022/03/01 01:54:04;;;;;;;3.80;3.50;;;15.40;49.40;16.50;102068.00;;;;5008386;28;20195;-45
2022/03/01 01:56:29;;;;;;;4.07;3.67;;;15.40;49.30;16.50;102072.00;;;;5008327;28;20196;-45
2022/03/01 01:58:55;;;;;;;3.70;3.40;;;15.40;49.30;16.50;102071.00;;;;5007655;28;20687;-45
2022/03/01 02:01:21;;;;;;;4.10;3.70;;;15.40;49.20;16.50;102070.00;;;;5009000;28;20172;-44
2022/03/01 02:03:46;;;;;;;4.10;3.70;;;15.40;49.20;16.50;102064.00;;;;5008828;28;20199;-46
2022/03/01 02:06:12;;;;;;;3.90;3.60;;;15.40;49.30;16.50;102072.00;;;;5008336;28;20176;-44
2022/03/01 02:08:38;;;;;;;3.60;3.30;;;15.30;49.20;16.40;102074.00;;;;5008724;28;20194;-45
2022/03/01 02:11:03;;;;;;;3.30;3.10;;;15.30;49.10;16.40;102069.00;;;;5007558;28;20218;-44
2022/03/01 02:13:29;;;;;;;3.60;3.30;;;15.30;49.10;16.40;102072.00;;;;5008964;28;20196;-45
2022/03/01 02:15:55;;;;;;;3.77;3.47;;;15.30;49.20;16.40;102066.00;;;;5010285;28;20607;-44
2022/03/01 02:18:21;;;;;;;3.80;3.50;;;15.30;49.20;16.40;102064.00;;;;5008385;28;20252;-43
2022/03/01 02:20:47;;;;;;;3.80;3.50;;;15.20;49.10;16.40;102066.00;;;;5010380;28;20797;-44
2022/03/01 02:23:13;;;;;;;3.80;3.50;;;15.20;49.10;16.30;102053.00;;;;5008831;28;20192;-44
2022/03/01 02:25:38;;;;;;;3.63;3.33;;;15.20;49.10;16.30;102053.00;;;;5008334;28;20637;-45
2022/03/01 02:28:04;;;;;;;3.80;3.50;;;15.20;49.20;16.30;102067.00;;;;5008634;28;20184;-45
2022/03/01 02:30:30;;;;;;;3.73;3.43;;;15.20;49.10;16.30;102052.00;;;;5008448;28;20175;-44
2022/03/01 02:32:56;;;;;;;3.43;3.13;;;15.20;49.20;16.30;102062.00;;;;5023590;28;20750;-44
2022/03/01 02:35:22;;;;;;;3.90;3.60;;;15.10;49.10;16.30;102043.00;;;;5008157;28;20180;-44
2022/03/01 02:37:48;;;;;;;3.60;3.30;;;15.20;49.10;16.30;102045.00;;;;5008463;28;20600;-45
2022/03/01 02:40:14;;;;;;;3.60;3.30;;;15.10;49.10;16.20;102052.00;;;;5009566;28;20176;-46
2022/03/01 02:42:43;;;;;;;3.63;3.33;;;15.10;49.10;16.20;102048.00;;;;5007924;28;20203;-43
2022/03/01 02:45:12;;;;;;;4.33;3.40;;;15.10;49.10;16.20;102059.00;;;;5008199;28;20172;-45
2022/03/01 02:47:37;;;;;;;3.70;3.40;;;15.10;49.10;16.20;102043.00;;;;5009636;28;20179;-45
2022/03/01 02:50:05;;;;;;;3.63;3.30;;;15.10;49.10;16.20;102040.00;;;;5009060;28;20194;-43
2022/03/01 02:52:31;;;;;;;3.53;3.23;;;15.00;49.00;16.20;102037.00;;;;5007920;28;20195;-45
2022/03/01 02:54:57;;;;;;;3.70;3.40;;;15.10;49.10;16.20;102026.00;;;;5006631;28;20668;-44
2022/03/01 02:57:24;;;;;;;3.67;3.37;;;15.00;49.00;16.20;102034.00;;;;5008431;28;20183;-44
2022/03/01 02:59:51;;;;;;;3.73;3.43;;;15.00;48.90;16.20;102029.00;;;;5009789;28;20234;-45
2022/03/01 03:02:18;;;;;;;3.70;3.40;;;15.00;49.00;16.20;102027.00;;;;5008153;28;20790;-44
2022/03/01 03:04:44;;;;;;;3.93;3.60;;;15.00;49.00;16.10;102022.00;;;;5008130;28;20202;-45
2022/03/01 03:07:10;;;;;;;3.70;3.40;;;15.00;48.90;16.10;102023.00;;;;5008054;28;20175;-44
2022/03/01 03:09:35;;;;;;;3.70;3.40;;;15.00;49.00;16.10;102018.00;;;;5008672;28;20263;-46
2022/03/01 03:12:01;;;;;;;3.67;3.37;;;15.00;49.00;16.10;102013.00;;;;5007880;28;20171;-45
2022/03/01 03:14:27;;;;;;;3.50;3.30;;;14.90;48.90;16.10;102010.00;;;;5007989;28;20724;-44
2022/03/01 03:16:53;;;;;;;3.70;3.40;;;14.90;48.90;16.10;102021.00;;;;5023984;28;20572;-44
2022/03/01 03:19:19;;;;;;;3.50;3.20;;;14.90;48.90;16.00;102013.00;;;;5007715;28;20222;-45
2022/03/01 03:21:45;;;;;;;3.90;3.60;;;14.90;48.80;16.00;102017.00;;;;5007772;28;20211;-45
2022/03/01 03:24:10;;;;;;;3.73;3.43;;;14.90;48.80;16.00;102008.00;;;;5007772;28;20187;-43
2022/03/01 03:26:37;;;;;;;3.93;3.63;;;14.80;48.70;16.00;102014.00;;;;5024230;28;20195;-47
2022/03/01 03:29:04;;;;;;;3.93;3.63;;;14.90;48.90;16.00;102014.00;;;;5007695;28;20180;-45
2022/03/01 03:31:29;;;;;;;3.60;3.30;;;14.90;48.80;16.00;102018.00;;;;5008252;28;20191;-44
2022/03/01 03:33:55;;;;;;;4.00;3.70;;;14.80;48.80;16.00;102022.00;;;;5024132;28;20234;-44
2022/03/01 03:36:21;;;;;;;4.00;3.60;;;14.80;48.80;16.00;102017.00;;;;5009405;28;20187;-48
2022/03/01 03:38:46;;;;;;;3.87;3.47;;;14.80;48.90;16.00;102020.00;;;;5007614;28;20210;-44
2022/03/01 03:41:12;;;;;;;3.90;3.60;;;14.80;48.90;15.90;102012.00;;;;5007700;28;20581;-46
2022/03/01 03:43:38;;;;;;;3.60;3.30;;;14.80;48.90;15.90;102011.00;;;;5007879;28;20195;-45
2022/03/01 03:46:04;;;;;;;3.97;3.67;;;14.70;48.80;15.90;102011.00;;;;5008515;28;20190;-44
2022/03/01 03:48:29;;;;;;;3.70;3.40;;;14.80;48.90;15.90;102026.00;;;;5022902;28;20202;-44
2022/03/01 03:50:55;;;;;;;4.00;3.60;;;14.80;48.90;15.90;102020.00;;;;5010988;28;20179;-47
2022/03/01 03:53:21;;;;;;;3.77;3.47;;;14.70;48.80;15.90;102027.00;;;;5007384;28;20201;-45
2022/03/01 03:55:47;;;;;;;3.70;3.40;;;14.70;48.80;15.90;102025.00;;;;5008273;28;20172;-45
2022/03/01 03:58:13;;;;;;;3.90;3.60;;;14.70;48.80;15.80;102019.00;;;;5007131;28;20269;-45
2022/03/01 04:00:38;;;;;;;3.57;3.27;;;14.70;48.80;15.80;102011.00;;;;5008516;28;20171;-45
2022/03/01 04:03:04;;;;;;;3.57;3.27;;;14.70;48.90;15.80;102014.00;;;;5007420;28;20195;-46
2022/03/01 04:05:30;;;;;;;3.77;3.47;;;14.70;48.90;15.80;102016.00;;;;5007683;28;20194;-44
2022/03/01 04:07:55;;;;;;;3.90;3.60;;;14.60;48.80;15.80;102020.00;;;;5006945;28;20174;-44
2022/03/01 04:10:21;;;;;;;3.60;3.30;;;14.60;48.70;15.80;102021.00;;;;5005299;28;20308;-43
2022/03/01 04:12:47;;;;;;;3.80;3.50;;;14.60;48.70;15.70;102025.00;;;;5009188;28;20214;-44
2022/03/01 04:15:13;;;;;;;3.80;3.43;;;14.60;49.40;15.70;102013.00;;;;5007277;28;20543;-45
2022/03/01 04:17:39;;;;;;;4.67;3.43;;;14.60;48.70;15.70;102025.00;;;;5007081;28;20168;-45
2022/03/01 04:20:06;;;;;;;3.80;3.50;;;14.60;48.70;15.70;102011.00;;;;5007019;28;20168;-45
2022/03/01 04:22:31;;;;;;;3.77;3.47;;;14.60;48.80;15.70;102017.00;;;;5007001;28;20204;-45
2022/03/01 04:24:57;;;;;;;3.60;3.30;;;14.60;48.80;15.70;102029.00;;;;5007589;28;20190;-46
2022/03/01 04:27:23;;;;;;;3.70;3.40;;;14.60;48.80;15.70;102027.00;;;;5007023;28;20253;-45
2022/03/01 04:29:48;;;;;;;4.00;3.50;;;14.50;48.80;15.60;102014.00;;;;5008237;28;20172;-44
2022/03/01 04:32:14;;;;;;;5.40;3.43;;;14.60;49.30;15.60;102027.00;;;;5022240;28;20187;-43
2022/03/01 04:34:41;;;;;;;3.63;3.30;;;14.50;49.20;15.60;102027.00;;;;5007539;28;20699;-48
2022/03/01 04:37:08;;;;;;;3.93;3.53;;;14.50;49.10;15.60;102031.00;;;;5007019;28;20195;-45
2022/03/01 04:39:34;;;;;;;4.33;3.60;;;14.60;49.00;15.60;102028.00;;;;5006715;28;20199;-46
2022/03/01 04:41:59;;;;;;;4.00;3.60;;;14.50;48.70;15.60;102017.00;;;;5006792;28;20684;-46
2022/03/01 04:44:25;;;;;;;4.20;3.50;;;14.50;48.80;15.60;102018.00;;;;5009251;28;20241;-45
2022/03/01 04:46:51;;;;;;;3.70;3.40;;;14.50;48.70;15.60;102032.00;;;;5006542;28;20168;-45
2022/03/01 04:49:16;;;;;;;3.67;3.30;;;14.50;48.80;15.60;102033.00;;;;5008080;28;20191;-46
2022/03/01 04:51:42;;;;;;;3.50;3.20;;;14.50;48.70;15.60;102025.00;;;;5006431;28;20183;-45
2022/03/01 04:54:08;;;;;;;3.67;3.37;;;14.50;48.70;15.60;102036.00;;;;5009712;28;20261;-45
2022/03/01 04:56:33;;;;;;;3.57;3.27;;;14.40;48.60;15.50;102026.00;;;;5017538;28;20192;-46
2022/03/01 04:58:59;;;;;;;7.87;3.80;;;14.40;48.60;15.50;102032.00;;;;5005436;28;20564;-46
2022/03/01 05:01:25;;;;;;;3.73;3.43;;;14.40;48.60;15.50;102037.00;;;;5007039;28;20227;-44
2022/03/01 05:03:51;;;;;;;3.47;3.23;;;14.40;48.60;15.50;102031.00;;;;5008990;28;20591;-45
2022/03/01 05:06:16;;;;;;;4.10;3.70;;;14.40;48.50;15.50;102034.00;;;;5007453;28;20390;-42
2022/03/01 05:08:42;;;;;;;4.47;3.53;;;14.40;48.70;15.50;102035.00;;;;5006350;28;20175;-42
2022/03/01 05:11:08;;;;;;;4.50;3.67;;;14.40;48.70;15.50;102053.00;;;;5005432;28;20172;-43
2022/03/01 05:13:33;;;;;;;5.63;3.53;;;14.40;48.70;15.50;102051.00;;;;5021079;28;20200;-45
2022/03/01 05:15:59;;;;;;;3.40;3.20;;;14.40;48.80;15.50;102054.00;;;;5006295;28;20176;-45
2022/03/01 05:18:25;;;;;;;3.67;3.37;;;14.30;48.70;15.30;102059.00;;;;5006124;28;20199;-45
2022/03/01 05:20:51;;;;;;;3.77;3.47;;;14.30;48.70;15.50;102059.00;;;;5009000;28;20160;-44
2022/03/01 05:23:17;;;;;;;3.60;3.30;;;14.30;48.70;15.40;102050.00;;;;5005576;28;20257;-45
2022/03/01 05:25:43;;;;;;;3.90;3.50;;;14.30;48.70;15.40;102054.00;;;;5007831;28;20178;-44
2022/03/01 05:28:09;;;;;;;3.60;3.20;;;14.30;48.70;15.40;102054.00;;;;5020703;28;20817;-45
2022/03/01 05:30:35;;;;;;;3.70;3.40;;;14.30;48.70;15.40;102048.00;;;;5005750;28;20177;-44
2022/03/01 05:33:00;;;;;;;4.13;3.43;;;14.30;48.70;15.40;102051.00;;;;5021357;28;20191;-44
2022/03/01 05:35:28;;;;;;;5.17;3.40;;;14.30;48.80;15.40;102048.00;;;;5006970;28;20176;-45
2022/03/01 05:37:54;;;;;;;3.90;3.50;;;14.30;48.90;15.40;102045.00;;;;5005817;28;20203;-44
2022/03/01 05:40:26;;;;;;;3.60;3.30;;;14.30;48.70;15.40;102031.00;;;;5005129;28;20661;-42
2022/03/01 05:42:51;;;;;;;3.40;3.10;;;14.30;48.80;15.40;102035.00;;;;5005874;28;20187;-45
2022/03/01 05:45:17;;;;;;;4.13;3.60;;;14.20;48.70;15.30;102032.00;;;;5007859;28;20233;-44
2022/03/01 05:47:43;;;;;;;3.33;3.03;;;14.20;48.80;15.30;102036.00;;;;5013474;28;20175;-45
2022/03/01 05:50:13;;;;;;;3.73;3.43;;;14.20;48.80;15.30;102037.00;;;;5008902;28;20198;-44
2022/03/01 05:52:38;;;;;;;4.13;3.37;;;14.20;48.70;15.30;102040.00;;;;5012003;28;20198;-45
2022/03/01 05:55:08;;;;;;;4.33;3.73;;;14.20;48.70;15.30;102038.00;;;;5012380;28;20755;-44
2022/03/01 05:57:34;;;;;;;4.30;3.50;;;14.20;48.70;15.30;102062.00;;;;5009170;28;20187;-45
2022/03/01 06:00:00;;;;;;;4.97;3.60;;;14.20;48.50;15.30;102049.00;;;;5010129;28;20334;-45
2022/03/01 06:02:25;;;;;;;4.07;3.77;;;14.10;48.60;15.30;102054.00;;;;5023609;28;20172;-45
2022/03/01 06:04:52;;;;;;;4.03;3.67;;;14.20;48.60;15.30;102039.00;;;;5008957;28;20680;-44
2022/03/01 06:07:18;;;;;;;3.87;3.57;;;14.10;48.60;15.30;102033.00;;;;5012472;28;20240;-45
2022/03/01 06:09:44;;;;;;;4.57;3.50;;;14.10;48.60;15.30;102025.00;;;;5025957;28;20187;-44
2022/03/01 06:12:10;;;;;;;3.67;3.37;;;14.10;48.70;15.20;102037.00;;;;5008100;28;20164;-44
2022/03/01 06:14:35;;;;;;;4.47;3.47;;;14.10;48.60;15.20;102030.00;;;;5008280;28;20245;-44
2022/03/01 06:17:01;;;;;;;3.97;3.57;;;14.10;48.50;15.20;102030.00;;;;5010388;28;20176;-45
2022/03/01 06:19:27;;;;;;;4.00;3.60;;;14.10;48.50;15.20;102034.00;;;;5009488;28;20538;-44
2022/03/01 06:21:53;;;;;;;3.73;3.43;;;14.10;48.60;15.20;102035.00;;;;5008364;28;20202;-44
2022/03/01 06:24:19;;;;;;;3.67;3.37;;;14.00;48.50;15.20;102043.00;;;;5008536;28;20188;-45
2022/03/01 06:26:44;;;;;;;4.50;3.40;;;14.00;48.40;15.20;102047.00;;;;5025129;28;20263;-44
2022/03/01 06:29:10;;;;;;;3.77;3.47;;;14.00;48.50;15.20;102049.00;;;;5023705;28;20198;-44
2022/03/01 06:31:36;;;;;;;3.70;3.30;;;14.00;48.50;15.20;102053.00;;;;5011779;28;20737;-45
2022/03/01 06:34:01;;;;;;;4.17;3.67;;;14.00;48.60;15.10;102055.00;;;;5027747;28;20210;-43
2022/03/01 06:36:27;;;;;;;4.10;3.70;;;13.90;48.50;15.10;102055.00;;;;5012072;28;20675;-45
2022/03/01 06:38:53;;;;;;;3.60;3.30;;;14.00;48.50;15.10;102046.00;;;;5007474;28;20199;-44
2022/03/01 06:41:20;;;;;;;3.87;3.57;;;13.90;48.40;15.10;102052.00;;;;5008765;28;20159;-44
2022/03/01 06:43:45;;;;;;;3.87;3.57;;;13.90;48.40;15.10;101994.00;;;;5012702;28;20190;-44
2022/03/01 06:46:11;;;;;;;3.63;3.33;;;13.90;48.40;15.10;102055.00;;;;5012180;28;20176;-49
2022/03/01 06:48:37;;;;;;;3.83;3.53;;;13.90;48.40;15.10;102051.00;;;;5023175;28;20580;-44
2022/03/01 06:51:03;;;;;;;3.60;3.30;;;13.90;48.40;15.10;102062.00;;;;5011726;28;20176;-44
2022/03/01 06:53:29;;;;;;;3.70;3.40;;;13.90;48.40;15.00;102057.00;;;;5027627;28;20191;-44
2022/03/01 06:55:55;;;;;;;3.93;3.63;;;13.90;48.40;15.00;102054.00;;;;5011195;28;20541;-45
2022/03/01 06:58:21;;;;;;;3.40;3.13;;;13.90;48.40;15.00;102009.00;;;;5009149;28;20226;-44
2022/03/01 07:00:47;;;;;;;4.20;3.80;;;13.90;48.50;15.00;102053.00;;;;5010818;28;20668;-45
2022/03/01 07:03:12;;;;;;;3.97;3.60;;;13.90;48.40;15.00;102049.00;;;;5026979;28;20250;-45
2022/03/01 07:05:38;;;;;;;3.60;3.30;;;13.80;48.40;15.00;102063.00;;;;5012460;28;20200;-45
2022/03/01 07:08:04;;;;;;;3.80;3.50;;;13.80;48.30;15.00;102049.00;;;;5027873;28;20205;-45
2022/03/01 07:10:30;;;;;;;3.80;3.50;;;13.80;48.30;15.00;102059.00;;;;5011895;28;20179;-44
2022/03/01 07:12:56;;;;;;;3.77;3.47;;;13.90;48.30;15.00;102065.00;;;;5012018;28;20680;-44
2022/03/01 07:15:21;;;;;;;3.73;3.43;;;13.80;48.30;14.90;102060.00;;;;5026211;28;20171;-46
2022/03/01 07:17:47;;;;;;;3.77;3.47;;;13.80;48.30;14.90;102062.00;;;;5011680;28;20168;-45
2022/03/01 07:20:13;;;;;;;3.57;3.27;;;13.80;48.30;14.90;102062.00;;;;5011170;28;20171;-44
2022/03/01 07:22:39;;;;;;;4.37;3.97;;;13.80;48.40;14.90;102062.00;;;;5008683;28;20188;-44
2022/03/01 07:25:06;;;;;;;4.20;3.80;;;13.80;48.30;14.90;102056.00;;;;5010453;28;20812;-46
2022/03/01 07:27:31;;;;;;;4.20;3.80;;;13.80;48.30;14.90;102057.00;;;;5008626;28;20774;-45
2022/03/01 07:29:57;;;;;;;3.87;3.50;;;13.80;48.40;14.90;102051.00;;;;5014310;28;20179;-46
2022/03/01 07:32:23;;;;;;;3.97;3.67;;;13.80;48.20;14.90;102047.00;;;;5009292;28;20182;-45
2022/03/01 07:34:49;;;;;;;4.03;3.73;;;13.70;48.20;14.80;102053.00;;;;5007120;28;20225;-43
2022/03/01 07:37:15;;;;;;;4.13;3.50;;;13.70;48.20;14.80;102054.00;;;;5009292;28;20184;-43
2022/03/01 07:39:41;;;;;;;4.20;3.80;;;13.70;48.30;14.80;102062.00;;;;5010262;28;20199;-45
2022/03/01 07:42:06;;;;;;;3.97;3.67;;;13.70;48.30;14.80;102059.00;;;;5025287;28;20203;-44
2022/03/01 07:44:36;;;;;;;3.77;3.47;;;13.70;48.30;14.80;102051.00;;;;5010600;28;20230;-46
2022/03/01 07:47:06;;;;;;;4.20;3.80;;;13.70;48.40;14.80;102053.00;;;;5010950;28;20761;-45
2022/03/01 07:49:33;;;;;;;4.17;3.83;;;13.70;48.30;14.80;102061.00;;;;5011133;28;20268;-45
2022/03/01 07:51:59;;;;;;;4.10;3.73;;;13.70;48.50;14.80;102047.00;;;;5011542;28;20152;-45
2022/03/01 07:54:24;;;;;;;3.80;3.50;;;13.60;48.20;14.80;102056.00;;;;5006370;28;20184;-45
2022/03/01 07:56:50;;;;;;;3.60;3.30;;;13.70;48.40;14.80;102061.00;;;;5010715;28;20731;-44
2022/03/01 07:59:16;;;;;;;4.30;3.90;;;13.60;48.20;14.80;102069.00;;;;5009884;28;20262;-44
2022/03/01 08:01:41;;;;;;;3.77;3.47;;;13.60;48.20;14.80;102058.00;;;;5008019;28;20163;-45
2022/03/01 08:04:07;;;;;;;4.10;3.70;;;13.60;48.20;14.50;102059.00;;;;5022557;28;20203;-44
2022/03/01 08:06:33;;;;;;;4.37;3.97;;;13.70;48.50;14.70;102059.00;;;;5009070;28;20184;-45
2022/03/01 08:08:59;;;;;;;3.77;3.47;;;13.70;48.40;14.70;102069.00;;;;5009201;28;20199;-46
2022/03/01 08:11:24;;;;;;;4.20;3.80;;;13.60;48.30;14.70;102064.00;;;;5010580;28;20176;-45
2022/03/01 08:13:50;;;;;;;4.27;3.80;;;13.60;48.40;14.70;102072.00;;;;5010051;28;20198;-44
2022/03/01 08:16:16;;;;;;;4.40;4.00;;;13.70;48.30;14.70;102067.00;;;;5009931;28;20175;-45
2022/03/01 08:18:42;;;;;;;4.03;3.63;;;13.70;48.30;14.70;102075.00;;;;5014831;28;20203;-46
2022/03/01 08:21:08;;;;;;;4.47;4.07;;;13.60;48.30;14.70;102071.00;;;;5012899;28;20168;-45
2022/03/01 08:23:34;;;;;;;4.47;4.07;;;13.60;48.40;14.70;102061.00;;;;5009878;28;20183;-43
2022/03/01 08:25:59;;;;;;;4.17;3.77;;;13.60;48.30;14.70;102065.00;;;;5013249;28;20202;-45
2022/03/01 08:28:25;;;;;;;4.00;3.70;;;13.60;48.30;14.70;102074.00;;;;5025506;28;20172;-45
2022/03/01 08:30:53;;;;;;;3.93;3.50;;;13.60;48.30;14.50;102075.00;;;;5007497;28;20203;-44
2022/03/01 08:33:20;;;;;;;4.03;3.67;;;13.60;48.40;14.70;102062.00;;;;5006573;28;20711;-45
2022/03/01 08:35:46;;;;;;;4.30;3.90;;;13.60;48.50;14.70;102067.00;;;;5009550;28;20187;-45
2022/03/01 08:38:12;;;;;;;4.10;3.70;;;13.60;48.40;14.70;102057.00;;;;5008460;28;20234;-44
2022/03/01 08:40:38;;;;;;;3.90;3.60;;;13.60;48.40;14.70;102054.00;;;;5006558;28;20164;-44
2022/03/01 08:43:06;;;;;;;4.53;3.80;;;13.60;48.40;14.70;102046.00;;;;5010142;28;20214;-44
2022/03/01 08:45:31;;;;;;;5.33;3.90;;;13.60;48.60;14.70;102053.00;;;;5022882;28;20179;-43
2022/03/01 08:47:57;;;;;;;6.50;3.83;;;13.60;48.90;14.60;102057.00;;;;5006559;28;20206;-44
2022/03/01 08:50:23;;;;;;;4.33;3.77;;;13.60;48.50;14.40;102051.00;;;;5022458;28;20171;-45
2022/03/01 08:52:49;;;;;;;4.27;3.60;;;13.60;48.40;14.70;102060.00;;;;5013716;28;20218;-44
2022/03/01 08:55:15;;;;;;;4.60;4.10;;;13.60;48.60;14.70;102064.00;;;;5005024;28;20163;-44
2022/03/01 08:57:41;;;;;;;4.10;3.70;;;13.60;48.80;14.70;102066.00;;;;5005857;28;20727;-45
2022/03/01 09:00:09;;;;;;;7.17;3.73;;;13.60;48.80;14.70;102072.00;;;;5004902;28;20246;-43
2022/03/01 09:02:35;;;;;;;6.43;4.10;;;13.60;48.90;14.70;102067.00;;;;5006102;28;20195;-44
2022/03/01 09:05:01;;;;;;;4.40;4.00;;;13.60;48.70;14.60;102063.00;;;;5007481;28;20226;-45
2022/03/01 09:07:27;;;;;;;4.30;3.90;;;13.60;48.70;14.70;102072.00;;;;5012029;28;20255;-43
2022/03/01 09:09:52;;;;;;;4.87;4.00;;;13.60;48.70;14.70;102064.00;;;;5023262;28;20186;-44
2022/03/01 09:12:18;;;;;;;4.57;4.17;;;13.60;48.70;14.70;102068.00;;;;5030943;28;20725;-45
2022/03/01 09:14:44;;;;;;;6.57;4.13;;;13.60;48.70;14.60;102070.00;;;;5026170;28;20171;-45
2022/03/01 09:17:10;;;;;;;4.20;3.80;;;13.60;49.30;14.60;102066.00;;;;5029111;28;20175;-46
2022/03/01 09:19:36;;;;;;;5.63;3.83;;;13.60;48.60;14.60;102064.00;;;;5029425;28;20222;-44
2022/03/01 09:22:02;;;;;;;4.40;4.00;;;13.60;48.50;14.60;102068.00;;;;5033005;28;20167;-44
2022/03/01 09:24:28;;;;;;;4.50;3.80;;;13.60;48.50;14.60;102079.00;;;;5028819;28;20661;-44
2022/03/01 09:26:54;;;;;;;5.70;3.80;;;13.60;48.60;14.60;102082.00;;;;5029757;28;20167;-44
2022/03/01 09:29:20;;;;;;;4.13;3.73;;;13.60;48.50;14.60;102090.00;;;;5030246;28;20240;-43
2022/03/01 09:31:45;;;;;;;4.30;3.90;;;13.60;48.50;14.60;102095.00;;;;5033168;28;20175;-44
2022/03/01 09:34:11;;;;;;;4.00;3.60;;;13.60;48.60;14.60;102097.00;;;;5029740;28;20191;-44
2022/03/01 09:36:37;;;;;;;4.07;3.77;;;13.60;48.60;14.60;102086.00;;;;5032473;28;20167;-44
2022/03/01 09:39:03;;;;;;;5.10;4.20;;;13.60;48.50;14.60;102085.00;;;;5033030;28;20197;-47
2022/03/01 09:41:28;;;;;;;5.17;4.00;;;13.60;48.70;14.60;102069.00;;;;5013584;28;20176;-47
2022/03/01 09:43:54;;;;;;;4.60;4.20;;;13.60;49.90;14.60;102069.00;;;;5032737;28;20195;-45
2022/03/01 09:46:20;;;;;;;5.00;4.00;;;13.70;50.20;14.60;102058.00;;;;5028116;28;20182;-43
2022/03/01 09:48:46;;;;;;;5.80;3.90;;;13.90;49.50;14.70;102054.00;;;;5029497;28;20690;-45
2022/03/01 09:51:12;;;;;;;6.90;4.10;;;14.10;49.20;14.80;102045.00;;;;5029684;28;20174;-44
2022/03/01 09:53:40;;;;;;;8.07;3.93;;;14.20;49.60;14.90;102062.00;;;;5013999;28;20191;-44
2022/03/01 09:56:07;;;;;;;6.37;4.13;;;14.40;50.10;14.90;102065.00;;;;5029073;28;20167;-46
2022/03/01 09:58:33;;;;;;;4.57;4.00;;;14.50;50.50;15.00;102070.00;;;;5028455;28;20198;-44
2022/03/01 10:00:59;;;;;;;5.50;3.80;;;14.60;50.50;15.10;102074.00;;;;5029377;28;20696;-44
2022/03/01 10:03:24;;;;;;;4.73;4.23;;;14.60;50.60;15.10;102075.00;;;;5028897;28;20187;-44
2022/03/01 10:05:51;;;;;;;5.57;3.80;;;14.70;50.70;15.20;102063.00;;;;5027559;28;20175;-44
2022/03/01 10:08:20;;;;;;;4.43;4.03;;;14.80;50.60;15.30;102079.00;;;;5028841;28;20808;-43
2022/03/01 10:10:52;;;;;;;4.37;3.70;;;14.80;50.60;15.30;102078.00;;;;5028404;28;20171;-44
2022/03/01 10:13:23;;;;;;;4.27;3.87;;;14.80;50.60;15.30;102065.00;;;;5028972;28;20729;-46
2022/03/01 10:15:51;;;;;;;5.87;4.17;;;14.90;50.70;15.40;102067.00;;;;5029755;28;20171;-45
2022/03/01 10:18:17;;;;;;;4.30;3.90;;;14.90;50.60;15.50;102075.00;;;;5029134;28;20206;-44
2022/03/01 10:20:45;;;;;;;4.13;3.73;;;15.00;50.80;15.50;102071.00;;;;5029443;28;20175;-45
2022/03/01 10:23:11;;;;;;;5.30;3.80;;;15.00;51.10;15.50;102092.00;;;;5028385;28;20187;-45
2022/03/01 10:25:39;;;;;;;4.60;3.73;;;15.00;51.10;15.60;102074.00;;;;5027400;28;20209;-45
2022/03/01 10:28:05;;;;;;;5.10;4.20;;;15.10;51.00;15.60;102078.00;;;;5028043;28;20167;-46
2022/03/01 10:30:36;;;;;;;5.10;3.60;;;15.20;51.00;15.70;102087.00;;;;5030563;28;20167;-45
2022/03/01 10:33:14;;;;;;;8.93;4.13;;;15.10;51.00;15.50;102087.00;;;;5030199;28;20183;-45
2022/03/01 10:35:42;;;;;;;6.87;3.87;;;15.20;51.40;15.80;102086.00;;;;5029408;28;20210;-43
2022/03/01 10:38:09;;;;;;;5.03;3.90;;;15.20;51.80;15.80;102085.00;;;;5032728;28;20270;-43
2022/03/01 10:40:37;;;;;;;8.87;4.27;;;15.30;51.90;15.80;102078.00;;;;5032225;28;20171;-44
2022/03/01 10:43:09;;;;;;;12.10;4.53;;;15.40;52.40;15.90;102089.00;;;;5029109;28;20328;-44
2022/03/01 10:45:50;;;;;;;9.33;4.20;;;15.40;52.70;15.90;102083.00;;;;5028764;28;20182;-46